Time;durP1;ratioP1;P1;durP2;ratioP2;P2;SDS_P1;SDS_P2;PMS_P1;PMS_P2;Temp;Humidity;BMP_temperature;BMP_pressure;BME280_temperature;BME280_humidity;BME280_pressure;Samples;Min_cycle;Max_cycle;Signal;HPM_P1;HPM_P2
2022/11/11 00:01:34;;;;;;;;;;;;;;;9.57;82.54;101956.35;107270;1227;97632;-71
2022/11/11 00:03:59;;;;;;;;;;;;;;;9.58;82.63;101960.80;107295;1231;124619;-70
2022/11/11 00:06:25;;;;;;;;;;;;;;;9.58;82.59;101954.36;107276;1230;97644;-71
2022/11/11 00:08:50;;;;;;;;;;;;;;;9.59;82.51;101960.06;107165;1244;124603;-71
2022/11/11 00:11:15;;;;;;;;;;;;;;;9.60;82.62;101962.36;107388;1244;97677;-71
2022/11/11 00:13:41;;;;;;;;;;;;;;;9.61;82.56;101962.70;107335;1238;99998;-70
2022/11/11 00:16:14;;;;;;;;;;;;;;;9.60;82.68;101960.04;107282;1246;125172;-70
2022/11/11 00:27:10;;;;;;;;;;;;;;;9.58;82.74;101958.46;107039;1236;124784;-70
2022/11/11 00:29:36;;;;;;;;;;;;;;;9.58;82.76;101961.86;107284;1238;97747;-71
2022/11/11 00:37:49;;;;;;;;;;;;;;;9.56;82.83;101967.80;107149;1246;97625;-70
2022/11/11 00:40:15;;;;;;;;;;;;;;;9.55;82.74;101970.13;107034;1246;125152;-70
2022/11/11 00:42:40;;;;;;;;;;;;;;;9.55;82.75;101976.38;107166;1245;97697;-70
2022/11/11 00:45:06;;;;;;;;;;;;;;;9.55;82.76;101979.77;107128;1236;125293;-70
2022/11/11 00:53:09;;;;;;;;;;;;;;;9.54;82.82;101974.78;107072;1244;125680;-70
2022/11/11 00:55:34;;;;;;;;;;;;;;;9.53;82.97;101966.41;107173;1252;107354;-70
2022/11/11 00:57:59;;;;;;;;;;;;;;;9.53;82.88;101964.82;107048;1245;126430;-70
2022/11/11 01:00:25;;;;;;;;;;;;;;;9.49;82.80;101960.77;107244;1229;97769;-70
2022/11/11 01:02:50;;;;;;;;;;;;;;;9.48;82.74;101952.41;107121;1245;125277;-70
2022/11/11 01:05:15;;;;;;;;;;;;;;;9.47;82.78;101954.75;107220;1237;97696;-70
2022/11/11 01:07:40;;;;;;;;;;;;;;;9.44;82.85;101957.83;107175;1244;97608;-70
2022/11/11 01:10:06;;;;;;;;;;;;;;;9.42;82.82;101954.48;107109;1229;125222;-70
2022/11/11 01:12:31;;;;;;;;;;;;;;;9.40;82.83;101954.33;107148;1244;106168;-70
2022/11/11 01:14:56;;;;;;;;;;;;;;;9.38;82.82;101953.11;107091;1245;125346;-70
2022/11/11 01:17:21;;;;;;;;;;;;;;;9.36;82.84;101950.29;107228;1246;97992;-70
2022/11/11 01:19:46;;;;;;;;;;;;;;;9.33;82.92;101959.08;107173;1236;97939;-70
2022/11/11 01:22:12;;;;;;;;;;;;;;;9.33;82.93;101967.13;107152;1229;124515;-70
2022/11/11 01:24:37;;;;;;;;;;;;;;;9.33;83.01;101969.80;107215;1239;97616;-70
2022/11/11 01:27:03;;;;;;;;;;;;;;;9.31;82.98;101974.65;107184;1245;124867;-70
2022/11/11 01:29:29;;;;;;;;;;;;;;;9.30;83.08;101973.58;107168;1247;107398;-70
2022/11/11 01:31:54;;;;;;;;;;;;;;;9.32;83.07;101973.21;107165;1251;97765;-70
2022/11/11 01:34:19;;;;;;;;;;;;;;;9.32;83.11;101970.89;107193;1252;125010;-70
2022/11/11 01:36:44;;;;;;;;;;;;;;;9.31;83.21;101978.39;107210;1243;97028;-70
2022/11/11 01:39:09;;;;;;;;;;;;;;;9.32;83.20;101985.69;107164;1245;125058;-70
2022/11/11 01:41:38;;;;;;;;;;;;;;;9.33;83.25;101994.95;107227;1229;97746;-70
2022/11/11 01:44:23;;;;;;;;;;;;;;;9.33;83.43;101986.57;107219;1229;111070;-70
2022/11/11 01:46:52;;;;;;;;;;;;;;;9.33;83.33;101977.99;107073;1245;127124;-70
2022/11/11 01:49:23;;;;;;;;;;;;;;;9.32;83.23;101975.35;107181;1252;107502;-70
2022/11/11 01:52:07;;;;;;;;;;;;;;;9.31;83.50;101971.80;107091;1261;124855;-70
2022/11/11 01:54:35;;;;;;;;;;;;;;;9.31;83.39;101970.55;107201;1237;97593;-70
2022/11/11 01:57:04;;;;;;;;;;;;;;;9.31;83.44;101968.23;107138;1232;125317;-70
2022/11/11 01:59:31;;;;;;;;;;;;;;;9.32;83.56;101955.72;107241;1242;98069;-70
2022/11/11 02:01:57;;;;;;;;;;;;;;;9.31;83.43;101948.07;107222;1244;97656;-70
2022/11/11 02:07:08;;;;;;;;;;;;;;;9.32;83.45;101935.39;107215;1236;97613;-70
2022/11/11 02:09:35;;;;;;;;;;;;;;;9.31;83.42;101933.61;107142;1239;125409;-71
2022/11/11 02:14:48;;;;;;;;;;;;;;;9.29;83.44;101930.63;107069;1252;124645;-70
2022/11/11 02:17:15;;;;;;;;;;;;;;;9.28;83.49;101926.19;107203;1229;97619;-70
2022/11/11 02:19:52;;;;;;;;;;;;;;;9.27;83.46;101931.00;107134;1233;97678;-70
2022/11/11 02:22:25;;;;;;;;;;;;;;;9.26;83.51;101927.11;107099;1231;126750;-70
2022/11/11 02:24:51;;;;;;;;;;;;;;;9.22;83.51;101924.16;107208;1238;99580;-70
2022/11/11 02:27:17;;;;;;;;;;;;;;;9.20;83.55;101928.64;107123;1229;124980;-71
2022/11/11 02:29:45;;;;;;;;;;;;;;;9.18;83.53;101930.46;107190;1246;97590;-70
2022/11/11 02:32:10;;;;;;;;;;;;;;;9.13;83.47;101930.55;107220;1246;97736;-70
2022/11/11 02:34:35;;;;;;;;;;;;;;;9.11;83.51;101933.23;107186;1244;125131;-70
2022/11/11 02:37:03;;;;;;;;;;;;;;;9.08;83.48;101935.25;107197;1244;97721;-70
2022/11/11 02:39:29;;;;;;;;;;;;;;;9.06;83.51;101943.66;107089;1231;124760;-70
2022/11/11 02:41:57;;;;;;;;;;;;;;;9.04;83.59;101951.02;107289;1245;97845;-70
2022/11/11 02:44:23;;;;;;;;;;;;;;;9.01;83.54;101960.15;107203;1229;99576;-70
2022/11/11 02:46:48;;;;;;;;;;;;;;;8.98;83.60;101967.16;107015;1243;126272;-70
2022/11/11 02:49:13;;;;;;;;;;;;;;;8.96;83.56;101978.42;107324;1246;97756;-70
2022/11/11 02:51:39;;;;;;;;;;;;;;;8.94;83.55;101979.35;107119;1253;125452;-70
2022/11/11 02:54:04;;;;;;;;;;;;;;;8.92;83.70;101984.19;107279;1236;97633;-69
2022/11/11 02:59:14;;;;;;;;;;;;;;;8.89;83.67;101989.40;107224;1239;97730;-70
2022/11/11 03:01:39;;;;;;;;;;;;;;;8.86;83.64;101991.23;107183;1236;97599;-70
2022/11/11 03:04:04;;;;;;;;;;;;;;;8.83;83.73;101990.74;107169;1236;125285;-70
2022/11/11 03:06:30;;;;;;;;;;;;;;;8.79;83.83;101980.45;107204;1245;97603;-70
2022/11/11 03:08:55;;;;;;;;;;;;;;;8.77;83.88;101981.19;107223;1236;125211;-70
2022/11/11 03:11:27;;;;;;;;;;;;;;;8.76;83.88;101983.89;107310;1244;97653;-70
2022/11/11 03:13:56;;;;;;;;;;;;;;;8.74;83.77;101990.34;107181;1239;108394;-70
2022/11/11 03:19:05;;;;;;;;;;;;;;;8.68;83.83;101985.79;107246;1236;97588;-70
2022/11/11 03:21:30;;;;;;;;;;;;;;;8.64;84.01;101988.34;107051;1230;125085;-71
2022/11/11 03:23:55;;;;;;;;;;;;;;;8.60;84.00;101986.79;107261;1245;97605;-70
2022/11/11 03:26:21;;;;;;;;;;;;;;;8.59;84.10;101990.19;107219;1242;97715;-70
2022/11/11 03:28:46;;;;;;;;;;;;;;;8.57;84.10;101991.65;107221;1229;125480;-70
2022/11/11 03:31:11;;;;;;;;;;;;;;;8.54;84.12;101987.59;107221;1245;97695;-70
2022/11/11 03:33:36;;;;;;;;;;;;;;;8.51;84.18;101993.33;107161;1237;125054;-70
2022/11/11 03:36:01;;;;;;;;;;;;;;;8.48;84.20;101996.23;107233;1237;96554;-70
2022/11/11 03:38:27;;;;;;;;;;;;;;;8.45;84.12;101995.55;107202;1237;97582;-70
2022/11/11 03:40:54;;;;;;;;;;;;;;;8.43;84.21;101998.60;107116;1244;124712;-71
2022/11/11 03:43:20;;;;;;;;;;;;;;;8.40;84.20;102002.20;107202;1239;97644;-71
2022/11/11 03:45:45;;;;;;;;;;;;;;;8.36;84.18;102004.74;107122;1229;124732;-71
2022/11/11 03:48:11;;;;;;;;;;;;;;;8.31;84.31;102003.17;107259;1236;97622;-70
2022/11/11 03:50:36;;;;;;;;;;;;;;;8.27;84.41;102000.19;107171;1238;99218;-71
2022/11/11 03:53:01;;;;;;;;;;;;;;;8.24;84.55;101998.98;107036;1246;125854;-70
2022/11/11 03:55:27;;;;;;;;;;;;;;;8.22;84.57;101994.56;107290;1236;98316;-71
2022/11/11 03:57:53;;;;;;;;;;;;;;;8.19;84.57;102000.83;107053;1253;124648;-71
2022/11/11 04:00:20;;;;;;;;;;;;;;;8.15;84.51;102004.79;107206;1238;97595;-71
2022/11/11 04:11:02;;;;;;;;;;;;;;;8.03;84.64;102002.26;107093;1246;124842;-71
2022/11/11 04:16:12;;;;;;;;;;;;;;;7.98;84.67;102000.52;107112;1245;124535;-71
2022/11/11 04:26:52;;;;;;;;;;;;;;;7.87;84.71;101971.63;107047;1244;124910;-71
2022/11/11 04:29:27;;;;;;;;;;;;;;;7.86;84.76;101969.88;107237;1252;97583;-73
2022/11/11 04:34:36;;;;;;;;;;;;;;;7.82;84.79;101965.11;107106;1252;125420;-71
2022/11/11 04:37:01;;;;;;;;;;;;;;;7.80;84.74;101976.36;107226;1244;97709;-71
2022/11/11 04:42:11;;;;;;;;;;;;;;;7.76;84.77;101973.58;107198;1245;112431;-70
2022/11/11 04:47:20;;;;;;;;;;;;;;;7.75;84.94;101987.11;107174;1237;107200;-70
2022/11/11 04:49:45;;;;;;;;;;;;;;;7.73;85.04;101993.71;107150;1245;100687;-71
2022/11/11 04:52:25;;;;;;;;;;;;;;;7.71;84.86;102000.48;107143;1252;124631;-71
2022/11/11 04:57:42;;;;;;;;;;;;;;;7.69;85.44;102001.94;107047;1244;125223;-71
2022/11/11 05:00:26;;;;;;;;;;;;;;;7.69;85.08;102004.25;107170;1229;97754;-71
2022/11/11 05:11:07;;;;;;;;;;;;;;;7.62;85.14;101994.00;107078;1237;124606;-70
2022/11/11 05:21:48;;;;;;;;;;;;;;;7.59;85.17;101999.73;107105;1233;124795;-70
2022/11/11 05:26:57;;;;;;;;;;;;;;;7.56;85.22;102002.42;107092;1236;125850;-71
2022/11/11 05:29:22;;;;;;;;;;;;;;;7.54;85.24;101998.34;107231;1239;97732;-71
2022/11/11 05:31:47;;;;;;;;;;;;;;;7.54;85.26;102007.06;107267;1237;97608;-70
2022/11/11 05:34:12;;;;;;;;;;;;;;;7.52;85.40;102011.88;107106;1245;126835;-71
2022/11/11 05:36:37;;;;;;;;;;;;;;;7.52;85.36;102015.60;107274;1246;98891;-71
2022/11/11 05:39:02;;;;;;;;;;;;;;;7.52;85.48;102020.06;107111;1236;124584;-71
2022/11/11 05:41:28;;;;;;;;;;;;;;;7.51;85.55;102017.94;107294;1236;97604;-71
2022/11/11 05:43:53;;;;;;;;;;;;;;;7.52;85.51;102015.80;107209;1233;97720;-72
2022/11/11 05:46:18;;;;;;;;;;;;;;;7.51;85.48;102016.15;107203;1239;125226;-70
2022/11/11 05:49:29;;;;;;;;;;;;;;;7.49;85.44;102016.88;107331;1238;97713;-70
2022/11/11 05:51:29;;;;;;;;;;;;;;;7.49;85.50;102022.74;106990;1235;125412;-71
2022/11/11 05:53:57;;;;;;;;;;;;;;;7.48;85.40;102027.20;107181;1229;97721;-77
2022/11/11 05:56:23;;;;;;;;;;;;;;;7.47;85.56;102027.21;107281;1236;97615;-71
2022/11/11 05:58:48;;;;;;;;;;;;;;;7.46;85.59;102024.55;107201;1237;124499;-71
2022/11/11 06:01:13;;;;;;;;;;;;;;;7.45;85.52;102019.05;107283;1237;97668;-70
2022/11/11 06:03:38;;;;;;;;;;;;;;;7.43;85.55;102013.55;107169;1247;124477;-71
2022/11/11 06:06:04;;;;;;;;;;;;;;;7.42;85.66;102018.02;107320;1238;97678;-70
2022/11/11 06:08:29;;;;;;;;;;;;;;;7.41;85.61;102013.75;107216;1245;97607;-70
2022/11/11 06:10:54;;;;;;;;;;;;;;;7.41;85.71;102016.06;107198;1236;125023;-71
2022/11/11 06:13:19;;;;;;;;;;;;;;;7.40;85.72;102017.67;107316;1249;97602;-70
2022/11/11 06:15:44;;;;;;;;;;;;;;;7.38;86.07;102022.13;107267;1252;124448;-71
2022/11/11 06:18:09;;;;;;;;;;;;;;;7.37;85.87;102020.90;107301;1236;98045;-71
2022/11/11 06:20:35;;;;;;;;;;;;;;;7.35;85.77;102028.02;107253;1238;96743;-73
2022/11/11 06:23:01;;;;;;;;;;;;;;;7.34;85.77;102027.14;107171;1252;124531;-71
2022/11/11 06:28:15;;;;;;;;;;;;;;;7.33;86.08;102010.44;107209;1238;126372;-69
2022/11/11 06:30:41;;;;;;;;;;;;;;;7.33;86.17;102014.53;107238;1237;98817;-69
2022/11/11 06:33:07;;;;;;;;;;;;;;;7.32;86.24;102024.67;107244;1252;124674;-69
2022/11/11 06:35:34;;;;;;;;;;;;;;;7.32;86.13;102018.63;107273;1236;99401;-70
2022/11/11 06:38:00;;;;;;;;;;;;;;;7.33;86.27;102014.17;107255;1243;106564;-71
2022/11/11 06:40:26;;;;;;;;;;;;;;;7.32;86.29;102003.52;107134;1229;126022;-70
2022/11/11 06:42:52;;;;;;;;;;;;;;;7.33;86.35;102001.55;107300;1236;98137;-71
2022/11/11 06:45:17;;;;;;;;;;;;;;;7.33;86.32;101993.37;107138;1238;125412;-71
2022/11/11 06:47:42;;;;;;;;;;;;;;;7.34;86.31;101995.33;107213;1243;97711;-71
2022/11/11 06:50:07;;;;;;;;;;;;;;;7.34;86.34;102000.83;107334;1239;97706;-72
2022/11/11 06:52:33;;;;;;;;;;;;;;;7.34;86.30;102002.08;107187;1236;125072;-71
2022/11/11 06:54:58;;;;;;;;;;;;;;;7.34;86.45;102003.84;107362;1239;97823;-72
2022/11/11 06:57:23;;;;;;;;;;;;;;;7.36;86.42;102005.80;107211;1239;125627;-72
2022/11/11 06:59:49;;;;;;;;;;;;;;;7.38;86.46;102006.85;107314;1236;97706;-72
2022/11/11 07:02:14;;;;;;;;;;;;;;;7.39;86.55;102011.80;107284;1238;99197;-72
2022/11/11 07:04:39;;;;;;;;;;;;;;;7.41;86.49;102013.23;107156;1239;124500;-72
2022/11/11 07:07:04;;;;;;;;;;;;;;;7.42;86.69;102014.80;107359;1236;96885;-73
2022/11/11 07:09:29;;;;;;;;;;;;;;;7.43;86.69;102013.38;107222;1245;124809;-72
2022/11/11 07:11:55;;;;;;;;;;;;;;;7.45;86.62;102015.85;107273;1245;97698;-72
2022/11/11 07:14:20;;;;;;;;;;;;;;;7.45;86.65;102016.91;107275;1245;97662;-73
2022/11/11 07:16:45;;;;;;;;;;;;;;;7.46;86.70;102019.21;107244;1239;125040;-72
2022/11/11 07:19:10;;;;;;;;;;;;;;;7.46;86.80;102018.33;107333;1246;97612;-73
2022/11/11 07:21:36;;;;;;;;;;;;;;;7.48;86.86;102020.80;107149;1236;126637;-73
2022/11/11 07:24:01;;;;;;;;;;;;;;;7.49;86.99;102021.34;107323;1244;97763;-73
2022/11/11 07:26:26;;;;;;;;;;;;;;;7.50;86.99;102025.41;107200;1237;99178;-72
2022/11/11 07:28:51;;;;;;;;;;;;;;;7.52;86.94;102034.28;107210;1236;126668;-72
2022/11/11 07:31:17;;;;;;;;;;;;;;;7.53;87.16;102036.25;107285;1229;96694;-72
2022/11/11 07:33:42;;;;;;;;;;;;;;;7.53;87.20;102033.39;107210;1245;124491;-72
2022/11/11 07:36:07;;;;;;;;;;;;;;;7.55;87.14;102029.11;107287;1236;97417;-73
2022/11/11 07:38:32;;;;;;;;;;;;;;;7.58;87.22;102027.30;107235;1233;97796;-73
2022/11/11 07:40:57;;;;;;;;;;;;;;;7.60;87.17;102032.08;107234;1249;125022;-73
2022/11/11 07:43:24;;;;;;;;;;;;;;;7.63;87.19;102034.36;107293;1236;97623;-73
2022/11/11 07:45:49;;;;;;;;;;;;;;;7.65;87.32;102039.33;107177;1239;125639;-72
2022/11/11 07:48:15;;;;;;;;;;;;;;;7.68;87.27;102046.60;107381;1229;97610;-72
2022/11/11 07:50:40;;;;;;;;;;;;;;;7.72;87.41;102038.37;107326;1245;97817;-74
2022/11/11 07:53:05;;;;;;;;;;;;;;;7.80;87.43;102036.68;107295;1245;124316;-73
2022/11/11 07:55:30;;;;;;;;;;;;;;;7.85;87.32;102037.87;107277;1252;98919;-71
2022/11/11 07:57:56;;;;;;;;;;;;;;;7.84;87.25;102033.24;107228;1246;124884;-72
2022/11/11 08:00:22;;;;;;;;;;;;;;;7.88;87.34;102031.79;107270;1245;110774;-71
2022/11/11 08:02:47;;;;;;;;;;;;;;;7.90;87.33;102031.77;107176;1237;97707;-72
2022/11/11 08:05:13;;;;;;;;;;;;;;;7.93;87.36;102038.48;107165;1238;125729;-70
2022/11/11 08:07:38;;;;;;;;;;;;;;;7.96;87.38;102045.04;106733;1246;98990;-72
2022/11/11 08:10:04;;;;;;;;;;;;;;;7.99;87.33;102047.33;106690;1246;126860;-72
2022/11/11 08:15:13;;;;;;;;;;;;;;;8.07;87.41;102045.10;106651;1238;125281;-70
2022/11/11 08:17:38;;;;;;;;;;;;;;;8.12;87.39;102045.42;106807;1246;96417;-70
2022/11/11 08:20:05;;;;;;;;;;;;;;;8.16;87.43;102046.98;106827;1245;97700;-71
2022/11/11 08:22:34;;;;;;;;;;;;;;;8.21;87.43;102044.06;106618;1236;125160;-71
2022/11/11 08:24:59;;;;;;;;;;;;;;;8.25;87.44;102039.04;107355;1236;97722;-72
2022/11/11 08:27:25;;;;;;;;;;;;;;;8.26;87.38;102044.36;107045;1232;126793;-70
2022/11/11 08:29:50;;;;;;;;;;;;;;;8.29;87.37;102055.73;107280;1245;98301;-70
2022/11/11 08:32:15;;;;;;;;;;;;;;;8.32;87.38;102063.36;106849;1236;97217;-71
2022/11/11 08:34:40;;;;;;;;;;;;;;;8.34;87.40;102065.15;106941;1233;125285;-72
2022/11/11 08:37:06;;;;;;;;;;;;;;;8.35;87.43;102063.71;107171;1237;97618;-70
2022/11/11 08:39:31;;;;;;;;;;;;;;;8.39;87.35;102067.23;107228;1229;124958;-72
2022/11/11 08:41:56;;;;;;;;;;;;;;;8.41;87.40;102065.05;107312;1236;97727;-72
2022/11/11 08:44:21;;;;;;;;;;;;;;;8.42;87.43;102070.56;107206;1253;97594;-74
2022/11/11 08:46:46;;;;;;;;;;;;;;;8.46;87.45;102069.46;107144;1237;125256;-73
2022/11/11 08:49:12;;;;;;;;;;;;;;;8.47;87.31;102065.34;106915;1235;97634;-73
2022/11/11 08:51:37;;;;;;;;;;;;;;;8.51;87.32;102066.02;106952;1229;124523;-71
2022/11/11 08:54:02;;;;;;;;;;;;;;;8.55;87.36;102073.27;106802;1244;100498;-72
2022/11/11 08:56:27;;;;;;;;;;;;;;;8.60;87.36;102074.81;106974;1246;97567;-71
2022/11/11 08:58:53;;;;;;;;;;;;;;;8.64;87.22;102080.64;106843;1229;124667;-70
2022/11/11 09:01:18;;;;;;;;;;;;;;;8.68;87.23;102080.41;106743;1236;97602;-71
2022/11/11 09:03:44;;;;;;;;;;;;;;;8.73;87.31;102083.38;106750;1236;124647;-72
2022/11/11 09:06:10;;;;;;;;;;;;;;;8.76;87.21;102088.50;106748;1229;98057;-71
2022/11/11 09:08:36;;;;;;;;;;;;;;;8.81;87.17;102090.23;106641;1236;97909;-71
2022/11/11 09:11:02;;;;;;;;;;;;;;;8.84;87.14;102085.38;106730;1236;124638;-71
2022/11/11 09:13:27;;;;;;;;;;;;;;;8.89;87.19;102079.95;106712;1237;99449;-71
2022/11/11 09:15:53;;;;;;;;;;;;;;;8.95;87.14;102085.58;106604;1237;125591;-72
2022/11/11 09:18:18;;;;;;;;;;;;;;;9.00;87.06;102083.55;107299;1245;99627;-72
2022/11/11 09:20:43;;;;;;;;;;;;;;;9.03;87.08;102088.67;106940;1252;97414;-73
2022/11/11 09:23:09;;;;;;;;;;;;;;;9.05;86.93;102094.00;107208;1244;125072;-71
2022/11/11 09:25:34;;;;;;;;;;;;;;;9.06;86.86;102096.13;107175;1246;97615;-71
2022/11/11 09:28:00;;;;;;;;;;;;;;;9.06;86.90;102102.02;106669;1245;125287;-71
2022/11/11 09:30:26;;;;;;;;;;;;;;;9.10;86.90;102104.27;106832;1245;97821;-67
2022/11/11 09:32:51;;;;;;;;;;;;;;;9.12;86.68;102104.77;107062;1236;124683;-67
2022/11/11 09:35:16;;;;;;;;;;;;;;;9.15;86.74;102114.38;107234;1245;97727;-66
2022/11/11 09:37:41;;;;;;;;;;;;;;;9.17;86.64;102108.27;107204;1252;97664;-65
2022/11/11 09:40:10;;;;;;;;;;;;;;;9.20;86.63;102100.20;107206;1254;124942;-66
2022/11/11 09:42:42;;;;;;;;;;;;;;;9.25;86.55;102112.45;107170;1247;97725;-65
2022/11/11 09:45:17;;;;;;;;;;;;;;;9.25;86.44;102117.44;107098;1236;124961;-67
2022/11/11 09:47:48;;;;;;;;;;;;;;;9.26;86.32;102123.66;107238;1246;97850;-72
2022/11/11 09:50:24;;;;;;;;;;;;;;;9.28;86.35;102109.00;107139;1243;111194;-71
2022/11/11 09:52:53;;;;;;;;;;;;;;;9.33;86.28;102113.75;107096;1236;124735;-72
2022/11/11 09:55:21;;;;;;;;;;;;;;;9.37;86.25;102109.05;106742;1246;109078;-71
2022/11/11 09:57:48;;;;;;;;;;;;;;;9.41;86.24;102102.73;106646;1236;126526;-72
2022/11/11 10:00:20;;;;;;;;;;;;;;;9.48;86.22;102098.55;107017;1246;97719;-74
2022/11/11 10:02:45;;;;;;;;;;;;;;;9.53;86.03;102105.60;107216;1235;111120;-74
2022/11/11 10:05:14;;;;;;;;;;;;;;;9.53;85.97;102099.88;107139;1244;124982;-74
2022/11/11 10:07:45;;;;;;;;;;;;;;;9.55;85.93;102101.46;107168;1251;97906;-74
2022/11/11 10:10:10;;;;;;;;;;;;;;;9.60;85.83;102093.70;107146;1236;125582;-72
2022/11/11 10:12:38;;;;;;;;;;;;;;;9.65;85.86;102090.59;107374;1251;97731;-71
2022/11/11 10:15:04;;;;;;;;;;;;;;;9.70;85.82;102087.66;107276;1243;124826;-73
2022/11/11 10:17:44;;;;;;;;;;;;;;;9.73;85.63;102085.99;107379;1237;97627;-75
2022/11/11 10:20:23;;;;;;;;;;;;;;;9.77;85.72;102084.48;106939;1234;106481;-72
2022/11/11 10:22:50;;;;;;;;;;;;;;;9.80;85.50;102079.81;107103;1241;124841;-73
2022/11/11 10:25:20;;;;;;;;;;;;;;;9.85;85.53;102074.72;107323;1243;97607;-72
2022/11/11 10:27:47;;;;;;;;;;;;;;;9.91;85.51;102065.69;107091;1235;124551;-74
2022/11/11 10:30:17;;;;;;;;;;;;;;;9.94;85.31;102067.23;107167;1250;98319;-73
2022/11/11 10:32:44;;;;;;;;;;;;;;;9.94;85.27;102064.37;107291;1238;107463;-75
2022/11/11 10:35:17;;;;;;;;;;;;;;;9.98;85.30;102066.44;107276;1251;127118;-73
2022/11/11 10:37:42;;;;;;;;;;;;;;;10.01;85.05;102057.63;106980;1236;99365;-69
2022/11/11 10:40:16;;;;;;;;;;;;;;;10.05;85.13;102057.21;106956;1237;124948;-70
2022/11/11 10:42:41;;;;;;;;;;;;;;;10.13;85.25;102052.77;107272;1241;100752;-68
2022/11/11 10:45:10;;;;;;;;;;;;;;;10.22;84.93;102051.20;107027;1243;125642;-68
2022/11/11 10:47:44;;;;;;;;;;;;;;;10.27;84.75;102056.83;107305;1237;97606;-69
2022/11/11 10:50:22;;;;;;;;;;;;;;;10.29;84.86;102050.52;106773;1238;97894;-70
2022/11/11 10:52:50;;;;;;;;;;;;;;;10.37;84.92;102048.21;106627;1238;125448;-69
2022/11/11 10:55:21;;;;;;;;;;;;;;;10.46;84.92;102056.41;106746;1243;100115;-70
2022/11/11 10:57:56;;;;;;;;;;;;;;;10.54;84.83;102053.92;107086;1245;125630;-69
2022/11/11 11:00:21;;;;;;;;;;;;;;;10.57;84.63;102055.48;107166;1237;97973;-70
2022/11/11 11:03:05;;;;;;;;;;;;;;;10.57;84.52;102058.33;107106;1252;97805;-70
2022/11/11 11:05:43;;;;;;;;;;;;;;;10.57;84.17;102058.50;107192;1237;109862;-70
2022/11/11 11:08:14;;;;;;;;;;;;;;;10.59;84.23;102063.83;107197;1250;98437;-71
2022/11/11 11:10:42;;;;;;;;;;;;;;;10.62;84.11;102055.72;106945;1233;124744;-72
2022/11/11 11:13:14;;;;;;;;;;;;;;;10.65;83.98;102056.91;107234;1238;97525;-72
2022/11/11 11:15:43;;;;;;;;;;;;;;;10.69;83.78;102061.64;106836;1243;157359;-71
2022/11/11 11:18:12;;;;;;;;;;;;;;;10.73;83.57;102060.68;107125;1237;111368;-72
2022/11/11 11:20:38;;;;;;;;;;;;;;;10.75;83.57;102050.98;107117;1243;99292;-69
2022/11/11 11:23:03;;;;;;;;;;;;;;;10.81;83.63;102048.70;107071;1243;125080;-72
2022/11/11 11:25:32;;;;;;;;;;;;;;;10.87;83.38;102053.04;107260;1247;97618;-71
2022/11/11 11:28:17;;;;;;;;;;;;;;;10.91;83.52;102045.80;107062;1246;124854;-71
2022/11/11 11:30:57;;;;;;;;;;;;;;;10.93;83.11;102044.14;107157;1235;99381;-73
2022/11/11 11:33:22;;;;;;;;;;;;;;;10.95;83.04;102039.26;107099;1236;128634;-73
2022/11/11 11:35:47;;;;;;;;;;;;;;;10.99;82.84;102037.56;107217;1243;97572;-75
2022/11/11 11:38:12;;;;;;;;;;;;;;;11.05;82.90;102034.93;107277;1238;97723;-76
2022/11/11 11:40:49;;;;;;;;;;;;;;;11.09;82.85;102038.40;107088;1243;124803;-72
2022/11/11 11:43:30;;;;;;;;;;;;;;;11.13;82.59;102034.37;107164;1251;107182;-72
2022/11/11 11:45:58;;;;;;;;;;;;;;;11.15;82.66;102038.07;107049;1253;125568;-70
2022/11/11 11:48:31;;;;;;;;;;;;;;;11.18;82.60;102039.08;107205;1251;97579;-71
2022/11/11 11:51:07;;;;;;;;;;;;;;;11.22;82.41;102041.86;107063;1243;125156;-70
2022/11/11 11:53:35;;;;;;;;;;;;;;;11.21;81.88;102047.43;106825;1234;99578;-72
2022/11/11 11:56:10;;;;;;;;;;;;;;;11.19;81.97;102053.73;106780;1233;108150;-72
2022/11/11 11:58:50;;;;;;;;;;;;;;;11.22;81.92;102051.87;107146;1238;125785;-69
2022/11/11 12:01:18;;;;;;;;;;;;;;;11.24;81.47;102052.71;106845;1238;97622;-70
2022/11/11 12:03:52;;;;;;;;;;;;;;;11.26;81.32;102050.35;106758;1234;125362;-74
2022/11/11 12:06:25;;;;;;;;;;;;;;;11.26;80.88;102057.85;107151;1237;99064;-69
2022/11/11 12:09:13;;;;;;;;;;;;;;;11.28;80.76;102059.05;107137;1238;106993;-70
2022/11/11 12:14:16;;;;;;;12.90;5.10;;;;;;;11.37;80.27;102053.84;106600;1244;635525;-72
2022/11/11 12:17:00;;;;;;;12.50;4.10;;;;;;;11.38;79.88;102055.25;106569;1241;138120;-68
2022/11/11 12:19:46;;;;;;;15.60;3.70;;;;;;;11.38;79.93;102049.33;106889;1244;93969;-71
2022/11/11 12:22:34;;;;;;;14.20;4.40;;;;;;;11.43;79.66;102047.80;106951;1248;137385;-73
2022/11/11 12:25:30;;;;;;;25.30;5.30;;;;;;;11.47;79.71;102040.36;107013;1244;98340;-73
2022/11/11 12:28:09;;;;;;;14.40;4.40;;;;;;;11.48;78.88;102042.29;106778;1253;138679;-69
2022/11/11 12:30:39;;;;;;;20.40;4.10;;;;;;;11.46;78.80;102048.96;106637;1238;94659;-67
2022/11/11 12:33:18;;;;;;;9.80;3.30;;;;;;;11.48;78.63;102048.21;106905;1244;140095;-65
2022/11/11 12:36:09;;;;;;;12.70;2.90;;;;;;;11.48;78.43;102050.36;107108;1253;106948;-66
2022/11/11 12:38:41;;;;;;;8.90;3.10;;;;;;;11.48;78.16;102051.97;107136;1253;99466;-66
2022/11/11 12:41:35;;;;;;;12.40;3.20;;;;;;;11.45;77.93;102053.64;106968;1241;137836;-67
2022/11/11 12:44:09;;;;;;;12.50;3.60;;;;;;;11.47;78.24;102051.45;107104;1251;96057;-66
2022/11/11 12:46:59;;;;;;;10.40;3.20;;;;;;;11.48;78.11;102052.32;106995;1237;140017;-67
2022/11/11 12:49:32;;;;;;;9.80;2.70;;;;;;;11.49;77.91;102051.23;106822;1237;108872;-67
2022/11/11 12:52:29;;;;;;;8.20;3.30;;;;;;;11.47;77.82;102043.94;107007;1236;138256;-66
2022/11/11 12:55:33;;;;;;;10.20;3.80;;;;;;;11.48;77.87;102043.72;106901;1237;110127;-67
2022/11/11 12:58:19;;;;;;;8.70;3.00;;;;;;;11.47;77.59;102048.23;106976;1237;138597;-67
2022/11/11 13:01:07;;;;;;;13.10;3.60;;;;;;;11.45;77.69;102044.16;107108;1251;93976;-67
2022/11/11 13:04:04;;;;;;;8.30;3.50;;;;;;;11.42;77.28;102051.92;106972;1247;138719;-68
2022/11/11 13:06:47;;;;;;;7.10;3.00;;;;;;;11.38;77.13;102054.16;106954;1244;99751;-66
2022/11/11 13:09:47;;;;;;;4.50;2.60;;;;;;;11.34;76.81;102055.69;106570;1238;138593;-66
2022/11/11 13:12:36;;;;;;;6.00;2.40;;;;;;;11.33;77.11;102056.25;106821;1237;96038;-66
2022/11/11 13:15:11;;;;;;;9.90;3.20;;;;;;;11.32;76.93;102059.86;106739;1244;137893;-72
2022/11/11 13:17:36;;;;;;;13.00;2.90;;;;;;;11.31;76.99;102057.91;107025;1244;108096;-68
2022/11/11 13:20:33;;;;;;;8.70;3.30;;;;;;;11.30;76.84;102061.52;106644;1237;94921;-69
2022/11/11 13:22:58;;;;;;;9.20;3.00;;;;;;;11.30;77.03;102060.09;106877;1246;137818;-69
2022/11/11 13:25:30;;;;;;;10.40;2.90;;;;;;;11.30;77.03;102061.87;106849;1240;95005;-68
2022/11/11 13:28:27;;;;;;;10.10;3.60;;;;;;;11.28;77.02;102063.89;106339;1239;138625;-65
2022/11/11 13:31:22;;;;;;;11.30;4.10;;;;;;;11.29;77.12;102066.56;106840;1236;109539;-69
2022/11/11 13:33:52;;;;;;;8.10;2.80;;;;;;;11.28;77.17;102064.27;106898;1238;138209;-65
2022/11/11 13:36:22;;;;;;;9.80;3.20;;;;;;;11.26;77.05;102068.60;106460;1245;108153;-67
2022/11/11 13:38:58;;;;;;;10.50;3.50;;;;;;;11.24;77.07;102067.75;106460;1242;95040;-65
2022/11/11 13:41:30;;;;;;;17.20;3.60;;;;;;;11.24;77.03;102070.25;106804;1254;138069;-68
2022/11/11 13:44:04;;;;;;;10.30;3.80;;;;;;;11.21;77.07;102067.11;106834;1240;110041;-67
2022/11/11 13:46:37;;;;;;;15.40;4.20;;;;;;;11.19;77.08;102067.33;106424;1241;138317;-71
2022/11/11 13:49:05;;;;;;;7.80;3.20;;;;;;;11.18;76.98;102065.94;106899;1242;108043;-67
2022/11/11 13:51:42;;;;;;;9.50;3.30;;;;;;;11.16;76.98;102067.94;106750;1242;137907;-68
2022/11/11 13:54:23;;;;;;;13.00;3.40;;;;;;;11.14;76.99;102064.58;106875;1241;94917;-68
2022/11/11 13:56:49;;;;;;;16.10;5.50;;;;;;;11.12;76.96;102060.35;106786;1240;109402;-69